Terminal Aerodrome Forecast
Issued by NWS Grand Forks, ND

Home | Current Version | Previous Version | Text Only | Print | Product List | Glossary Off
Versions: 1 2 3 4 5 6 7 8 9 10 11 12 13 14

000
FTUS43 KFGF 151100
TAFFAR
TAF
KFAR 151135Z 1512/1612 VRB04KT P6SM FEW200
     FM151500 15010KT P6SM BKN100
     FM151900 13014G20KT P6SM BKN080
     FM160200 08020G30KT 4SM -SN BKN035=

USA.gov is the U.S. government's official web portal to all federal, state and local government web resources and services.